Escondido (450, 452, 454, 455) Station Data

Red Flag Warning: No
Fire Weather Zone: 250
SDGE Region: North East
Lat/Lon: 33.159/-117.031

Observations

Time Wind Speed/Gust Temp(F) RH Fuel Moist Fuel Temp(F) Dewpt(F) Tmax(F) Tmin(F) Accum Precip 10-min Precip SL Press(mb)
4/26 2:40am 18 4 G 6 51° 76% - - 44° 54.4° 50.4° - - -
4/26 2:30am 15 3 G 5 52° 75% - - 45° 54.4° 50.4° - - -
4/26 2:20am 11 2 G 4 52° 76% - - 44° 54.4° 50.4° - - -
4/26 2:10am 28 2 G 4 51° 77% - - 44° 54.4° 50.4° - - -
4/26 2:00am 18 5 G 7 51° 78% - - 44° 54.4° 50.4° - - -
4/26 1:50am 11 4 G 6 51° 77% - - 44° 54.4° 50.5° - - -
4/26 1:40am 22 3 G 5 51° 76% - - 44° 54.4° 51° - - -
4/26 1:30am 21 3 G 5 51° 76% - - 44° 54.4° 51.1° - - -
4/26 1:20am 15 3 G 5 51° 75% - - 44° 54.4° 51.1° - - -
4/26 1:10am 21 4 G 6 52° 74% - - 44° 54.4° 51.6° - - -
4/26 1:00am 13 2 G 4 53° 72% - - 44° 54.4° 52.1° - - -
4/26 12:50am 39 2 G 3 53° 73% - - 44° 54.4° 52.1° - - -
4/26 12:40am 14 3 G 5 52° 73% - - 44° 54.4° 52.1° - - -
4/26 12:30am 8 3 G 5 53° 71% - - 44° 54.4° 52.3° - - -
4/26 12:20am 16 3 G 5 54° 69% - - 44° 54.4° 53.3° - - -
4/26 12:10am 54 2 G 3 54° 68% - - 44° 54.4° 53.8° - - -
4/26 12:00am 84 1 G 4 54° 69% - - 44° 69° 52.5° - - -
4/25 11:50pm 22 5 G 7 53° 70% - - 44° 69° 52.5° - - -
4/25 11:40pm 20 5 G 7 53° 71% - - 44° 69° 52.5° - - -
4/25 11:30pm 21 5 G 7 53° 69% - - 43° 69° 52.7° - - -
4/25 11:20pm 21 3 G 5 54° 68% - - 43° 69° 53.5° - - -
4/25 11:10pm 18 3 G 5 54° 67% - - 43° 69° 53.8° - - -
4/25 11:00pm 25 4 G 6 54° 67% - - 43° 69° 53.8° - - -
4/25 10:50pm 16 3 G 5 55° 66% - - 44° 69° 54.3° - - -
4/25 10:40pm 20 2 G 4 55° 65% - - 44° 69° 54.9° - - -
4/25 10:30pm 17 2 G 4 56° 63% - - 44° 69° 55.4° - - -
4/25 10:20pm 19 1 G 2 56° 62% - - 44° 69° 56° - - -
4/25 10:10pm 10 1 G 3 57° 62% - - 44° 69° 56° - - -
4/25 10:00pm 359 1 G 3 56° 63% - - 44° 69° 56° - - -
4/25 9:50pm 3 1 G 3 56° 63% - - 44° 69° 56.2° - - -
4/25 9:40pm 341 2 G 3 57° 62% - - 44° 69° 56.5° - - -
4/25 9:30pm 6 2 G 3 57° 60% - - 44° 69° 56.9° - - -
4/25 9:20pm 59 1 G 2 57° 60% - - 44° 69° 56.9° - - -
4/25 9:10pm 9 3 G 5 57° 61% - - 44° 69° 56.9° - - -
4/25 9:00pm 345 3 G 4 57° 60% - - 44° 69° 56.9° - - -
4/25 8:50pm 340 2 G 4 58° 59% - - 43° 69° 57.2° - - -
4/25 8:40pm 349 2 G 4 58° 57% - - 43° 69° 57.2° - - -
4/25 8:30pm 341 1 G 3 58° 57% - - 43° 69° 57.2° - - -
4/25 8:20pm 357 2 G 4 59° 57% - - 43° 69° 57.2° - - -
4/25 8:10pm 345 2 G 4 59° 56% - - 43° 69° 57.2° - - -
4/25 8:00pm 325 3 G 4 59° 55% - - 43° 69° 57.2° - - -
4/25 7:50pm 328 2 G 4 60° 52% - - 43° 69° 57.2° - - -
4/25 7:40pm 334 1 G 2 62° 50% - - 43° 69° 57.2° - - -
4/25 7:30pm 288 1 G 2 62° 48% - - 42° 69° 57.2° - - -
4/25 7:20pm 217 2 G 3 63° 46% - - 42° 69° 57.2° - - -
4/25 7:10pm 216 2 G 4 63° 45% - - 42° 69° 57.2° - - -
4/25 7:00pm 267 1 G 3 63° 45% - - 42° 69° 57.2° - - -
4/25 6:50pm 289 2 G 5 64° 45% - - 42° 69° 57.2° - - -
4/25 6:40pm 222 2 G 5 64° 46% - - 43° 69° 57.2° - - -
4/25 6:30pm 209 3 G 10 64° 46% - - 43° 69° 57.2° - - -
4/25 6:20pm 236 3 G 8 64° 49% - - 45° 69° 57.2° - - -
4/25 6:10pm 216 5 G 9 64° 50% - - 45° 69° 57.2° - - -
4/25 6:00pm 215 5 G 11 65° 52% - - 47° 69° 57.2° - - -
4/25 5:50pm 218 5 G 10 65° 53% - - 48° 69° 57.2° - - -
4/25 5:40pm 220 3 G 8 66° 52% - - 48° 69° 57.2° - - -
4/25 5:30pm 215 5 G 10 66° 53% - - 48° 69° 57.2° - - -
4/25 5:20pm 233 4 G 8 66° 54% - - 49° 69° 57.2° - - -
4/25 5:10pm 216 6 G 11 67° 52% - - 49° 69° 57.2° - - -
4/25 5:00pm 198 6 G 10 68° 51% - - 49° 69° 57.2° - - -
4/25 4:50pm 222 5 G 11 67° 51% - - 49° 69° 57.2° - - -
4/25 4:40pm 227 5 G 10 67° 50% - - 48° 69° 57.2° - - -
4/25 4:30pm 209 7 G 11 68° 49% - - 48° 69° 57.2° - - -
4/25 4:20pm 196 5 G 11 68° 49% - - 48° 69° 57.2° - - -
4/25 4:10pm 209 5 G 10 68° 49% - - 49° 68.8° 57.2° - - -
4/25 4:00pm 227 5 G 10 68° 50% - - 48° 68.7° 57.2° - - -
4/25 3:50pm 240 5 G 10 68° 50% - - 48° 68.7° 57.2° - - -
4/25 3:40pm 221 5 G 12 67° 51% - - 48° 68.7° 57.2° - - -
4/25 3:30pm 254 5 G 12 67° 50% - - 48° 68.7° 57.2° - - -
4/25 3:20pm 262 4 G 9 67° 49% - - 48° 68.7° 57.2° - - -
4/25 3:10pm 244 4 G 8 68° 47% - - 47° 68.7° 57.2° - - -
4/25 3:00pm 191 5 G 9 68° 48% - - 47° 68.7° 57.2° - - -
4/25 2:50pm 227 4 G 8 67° 49% - - 47° 68.7° 57.2° - - -
4/25 2:40pm 233 4 G 9 67° 49% - - 47° 68.7° 57.2° - - -
4/25 2:30pm 240 6 G 12 67° 49% - - 47° 68.7° 57.2° - - -
4/25 2:20pm 247 5 G 11 67° 49% - - 47° 68.7° 57.2° - - -
4/25 2:10pm 212 5 G 10 68° 49% - - 48° 68.7° 57.2° - - -
4/25 2:00pm 214 5 G 9 67° 50% - - 48° 68.7° 57.2° - - -
4/25 1:50pm 264 5 G 11 67° 51% - - 48° 68.7° 57.2° - - -
4/25 1:40pm 245 6 G 12 67° 51% - - 48° 68.7° 57.2° - - -
4/25 1:30pm 268 6 G 12 67° 49% - - 48° 68.7° 57.2° - - -
4/25 1:20pm 227 4 G 8 67° 50% - - 48° 68.7° 57.2° - - -
4/25 1:10pm 221 5 G 11 68° 50% - - 48° 68.7° 57.2° - - -
4/25 1:00pm 220 4 G 10 68° 50% - - 49° 68.7° 57.2° - - -
4/25 12:50pm 189 5 G 9 68° 51% - - 49° 68.7° 57.2° - - -
4/25 12:40pm 198 5 G 10 67° 52% - - 49° 68.7° 57.2° - - -
4/25 12:30pm 205 6 G 11 67° 53% - - 49° 68.7° 57.2° - - -
4/25 12:20pm 229 5 G 9 67° 53% - - 49° 68.7° 57.2° - - -
4/25 12:10pm 232 4 G 10 67° 53% - - 50° 68.7° 57.2° - - -
4/25 12:00pm 209 6 G 11 67° 53% - - 49° 68.7° 57.2° - - -
4/25 11:50am 197 5 G 11 68° 49% - - 48° 68.7° 57.2° - - -
4/25 11:40am 150 3 G 9 67° 50% - - 48° 68° 57.2° - - -
4/25 11:30am 166 5 G 8 66° 52% - - 48° 66.9° 57.2° - - -
4/25 11:20am 227 4 G 8 65° 54% - - 49° 66.9° 57.2° - - -
4/25 11:10am 234 5 G 9 66° 54% - - 49° 66.9° 57.2° - - -
4/25 11:00am 205 5 G 9 66° 52% - - 48° 66.9° 57.2° - - -
4/25 10:50am 141 2 G 9 66° 51% - - 48° 66.8° 57.2° - - -
4/25 10:40am 224 3 G 8 66° 53% - - 48° 66.5° 57.2° - - -
4/25 10:30am 178 4 G 8 65° 54% - - 48° 66.5° 57.2° - - -
4/25 10:20am 135 3 G 6 65° 56% - - 49° 66.5° 57.2° - - -
4/25 10:10am 152 3 G 7 65° 57% - - 49° 65.9° 57.2° - - -
4/25 10:00am 195 3 G 5 63° 60% - - 49° 63.7° 57.2° - - -
4/25 9:50am 176 3 G 9 63° 63% - - 50° 63.5° 57.2° - - -
4/25 9:40am 134 3 G 6 62° 65% - - 51° 63.2° 57.2° - - -
4/25 9:30am 143 3 G 7 62° 68% - - 51° 62.5° 57.2° - - -
4/25 9:20am 143 3 G 6 61° 69% - - 51° 61.2° 57.2° - - -
4/25 9:10am 126 2 G 5 61° 70% - - 51° 61.1° 57.2° - - -
4/25 9:00am 125 2 G 5 60° 71% - - 51° 61.1° 57.2° - - -
4/25 8:50am 176 3 G 6 61° 70% - - 51° 61.1° 57.2° - - -
4/25 8:40am 181 2 G 5 59° 73% - - 51° 59.9° 57.2° - - -
4/25 8:30am 179 3 G 6 59° 73% - - 51° 59.4° 57.2° - - -
4/25 8:20am 176 3 G 6 59° 74% - - 51° 59.4° 57.2° - - -
4/25 8:10am 179 4 G 8 58° 75% - - 51° 58.9° 57.2° - - -
4/25 8:00am 188 3 G 6 58° 75% - - 51° 58.7° 57.2° - - -
4/25 7:50am 176 3 G 7 58° 75% - - 51° 58.7° 57.2° - - -
4/25 7:40am 174 3 G 6 58° 76% - - 51° 58.7° 57.2° - - -
4/25 7:30am 164 4 G 8 58° 77% - - 51° 58.6° 57.2° - - -
4/25 7:20am 183 3 G 7 58° 77% - - 51° 58.6° 57.2° - - -
4/25 7:10am 197 3 G 5 58° 77% - - 51° 58.6° 57.2° - - -
4/25 7:00am 177 3 G 7 58° 77% - - 51° 58.6° 57.2° - - -
4/25 6:50am 172 3 G 6 58° 77% - - 51° 58.6° 57.2° - - -
4/25 6:40am 172 3 G 8 58° 76% - - 51° 58.6° 57.2° - - -
4/25 6:30am 191 3 G 4 58° 76% - - 50° 58.6° 57.2° - - -
4/25 6:20am 202 3 G 6 58° 76% - - 50° 58.6° 57.2° - - -
4/25 6:10am 191 3 G 7 58° 75% - - 50° 58.6° 57.2° - - -
4/25 6:00am 193 2 G 6 58° 74% - - 50° 58.6° 57.2° - - -
4/25 5:50am 176 2 G 5 58° 74% - - 49° 58.6° 57.2° - - -
4/25 5:40am 197 2 G 5 58° 74% - - 49° 58.6° 57.2° - - -
4/25 5:30am 208 3 G 5 58° 74% - - 49° 58.6° 57.2° - - -
4/25 5:20am 189 3 G 6 58° 73% - - 49° 58.6° 57.2° - - -
4/25 5:10am 192 3 G 6 58° 73% - - 49° 58.6° 57.2° - - -
4/25 5:00am 188 2 G 4 58° 73% - - 49° 58.6° 57.2° - - -
4/25 4:50am 184 3 G 5 57° 73% - - 49° 58.6° 57.2° - - -
4/25 4:40am 184 2 G 3 57° 74% - - 49° 58.6° 57.2° - - -
4/25 4:30am 188 3 G 5 57° 74% - - 49° 58.6° 57.2° - - -
4/25 4:20am 167 3 G 5 57° 74% - - 49° 58.6° 57.2° - - -
4/25 4:10am 164 3 G 6 58° 74% - - 49° 58.6° 57.3° - - -
4/25 4:00am 166 3 G 5 58° 73% - - 49° 58.6° 57.4° - - -
4/25 3:50am 165 3 G 6 58° 73% - - 49° 58.6° 57.4° - - -
4/25 3:40am 174 4 G 8 58° 73% - - 49° 58.6° 57.6° - - -
4/25 3:30am 174 4 G 8 58° 74% - - 50° 58.6° 57.6° - - -
4/25 3:20am 191 4 G 6 58° 74% - - 50° 58.6° 57.6° - - -
4/25 3:10am 176 5 G 9 58° 73% - - 50° 58.6° 57.6° - - -
4/25 3:00am 177 4 G 7 58° 73% - - 50° 58.6° 57.6° - - -
4/25 2:50am 202 3 G 7 58° 74% - - 50° 58.6° 57.6° - - -
4/25 2:40am 165 3 G 5 58° 74% - - 50° 58.6° 57.6° - - -
4/25 2:30am 175 2 G 5 58° 74% - - 50° 58.6° 57.6° - - -
4/25 2:20am 168 3 G 4 58° 73% - - 49° 58.6° 57.6° - - -
4/25 2:10am 155 2 G 4 58° 73% - - 49° 58.6° 57.6° - - -
4/25 2:00am 160 2 G 5 58° 73% - - 49° 58.6° 57.6° - - -
4/25 1:50am 162 3 G 6 58° 73% - - 49° 58.6° 57.6° - - -
4/25 1:40am 164 3 G 5 58° 73% - - 49° 58.6° 57.6° - - -
4/25 1:30am 160 3 G 6 58° 73% - - 49° 58.6° 57.6° - - -
4/25 1:20am 163 4 G 7 58° 73% - - 49° 58.6° 57.6° - - -
4/25 1:10am 167 4 G 5 58° 73% - - 49° 58.6° 57.9° - - -
4/25 1:00am 170 2 G 5 58° 73% - - 50° 58.6° 58° - - -
4/25 12:50am 160 3 G 6 58° 73% - - 50° 58.6° 58° - - -
4/25 12:40am 149 2 G 5 58° 73% - - 50° 58.6° 58.1° - - -
4/25 12:30am 170 3 G 5 58° 73% - - 50° 58.6° 58.1° - - -
4/25 12:20am 173 2 G 5 58° 73% - - 50° 58.6° 58.1° - - -
4/25 12:10am 154 2 G 6 58° 74% - - 50° 58.6° 58.1° - - -
4/25 12:00am 177 4 G 8 58° 74% - - 50° 71° 57.7° - - -
4/24 11:50pm 177 4 G 9 58° 76% - - 51° 71° 57.7° - - -
4/24 11:40pm 178 7 G 11 58° 76% - - 51° 71° 57.7° - - -
4/24 11:30pm 181 5 G 10 59° 76% - - 51° 71° 57.7° - - -
4/24 11:20pm 199 4 G 7 59° 76% - - 52° 71° 57.7° - - -
4/24 11:10pm 177 4 G 7 59° 76% - - 52° 71° 57.7° - - -
4/24 11:00pm 203 3 G 5 59° 76% - - 52° 71° 57.7° - - -
4/24 10:50pm 186 3 G 6 59° 76% - - 52° 71° 57.7° - - -
4/24 10:40pm 185 3 G 5 59° 76% - - 52° 71° 57.7° - - -
4/24 10:30pm 181 4 G 7 59° 75% - - 51° 71° 57.7° - - -
4/24 10:20pm 172 4 G 6 59° 74% - - 51° 71° 57.7° - - -
4/24 10:10pm 158 3 G 5 59° 73% - - 51° 71° 57.7° - - -
4/24 10:00pm 155 2 G 5 60° 72% - - 51° 71° 57.7° - - -
4/24 9:50pm 178 2 G 6 60° 72% - - 51° 71° 57.7° - - -
4/24 9:40pm 183 3 G 7 60° 72% - - 51° 71° 57.7° - - -
4/24 9:30pm 177 4 G 7 60° 70% - - 50° 71° 57.7° - - -
4/24 9:20pm 175 3 G 6 60° 69% - - 50° 71° 57.7° - - -
4/24 9:10pm 163 4 G 6 60° 70% - - 51° 71° 57.7° - - -
4/24 9:00pm 183 3 G 6 60° 70% - - 51° 71° 57.7° - - -
4/24 8:50pm 190 4 G 7 61° 69% - - 51° 71° 57.7° - - -
4/24 8:40pm 183 4 G 6 61° 70% - - 51° 71° 57.7° - - -
4/24 8:30pm 172 5 G 8 61° 69% - - 51° 71° 57.7° - - -
4/24 8:20pm 178 5 G 9 61° 68% - - 51° 71° 57.7° - - -
4/24 8:10pm 182 5 G 9 61° 67% - - 50° 71° 57.7° - - -
4/24 8:00pm 184 6 G 10 61° 67% - - 50° 71° 57.7° - - -
4/24 7:50pm 181 6 G 10 62° 66% - - 50° 71° 57.7° - - -
4/24 7:40pm 182 6 G 12 62° 68% - - 51° 71° 57.7° - - -
4/24 7:30pm 179 7 G 11 62° 68% - - 51° 71° 57.7° - - -
4/24 7:20pm 184 5 G 9 62° 67% - - 51° 71° 57.7° - - -
4/24 7:10pm 201 3 G 5 62° 65% - - 50° 71° 57.7° - - -
4/24 7:00pm 216 4 G 8 62° 65% - - 50° 71° 57.7° - - -
4/24 6:50pm 209 4 G 8 63° 63% - - 50° 71° 57.7° - - -
4/24 6:40pm 199 4 G 7 63° 64% - - 50° 71° 57.7° - - -
4/24 6:30pm 207 6 G 12 63° 65% - - 50° 71° 57.7° - - -
4/24 6:20pm 204 6 G 10 63° 65% - - 51° 71° 57.7° - - -
4/24 6:10pm 213 6 G 9 63° 64% - - 51° 71° 57.7° - - -
4/24 6:00pm 209 6 G 11 64° 63% - - 51° 71° 57.7° - - -